sensor_id;sensor_type;location;lat;lon;timestamp;P1;durP1;ratioP1;P2;durP2;ratioP2
27543;SDS011;17996;51.056;3.656;2024-03-23T00:54:28;43.90;;;12.63;;
27543;SDS011;17996;51.056;3.656;2024-03-23T00:56:55;37.85;;;12.05;;
27543;SDS011;17996;51.056;3.656;2024-03-23T00:59:22;33.90;;;12.48;;
27543;SDS011;17996;51.056;3.656;2024-03-23T01:01:52;36.80;;;10.80;;
27543;SDS011;17996;51.056;3.656;2024-03-23T01:04:19;35.40;;;12.85;;
27543;SDS011;17996;51.056;3.656;2024-03-23T01:06:45;37.00;;;12.93;;
27543;SDS011;17996;51.056;3.656;2024-03-23T01:09:12;42.67;;;12.00;;
27543;SDS011;17996;51.056;3.656;2024-03-23T01:11:38;39.17;;;12.77;;
27543;SDS011;17996;51.056;3.656;2024-03-23T01:14:05;35.97;;;13.90;;
27543;SDS011;17996;51.056;3.656;2024-03-23T01:16:32;35.35;;;12.05;;
27543;SDS011;17996;51.056;3.656;2024-03-23T01:18:58;35.13;;;12.85;;
27543;SDS011;17996;51.056;3.656;2024-03-23T01:21:25;42.90;;;13.68;;
27543;SDS011;17996;51.056;3.656;2024-03-23T01:23:52;42.25;;;14.25;;
27543;SDS011;17996;51.056;3.656;2024-03-23T01:26:18;42.10;;;13.77;;
27543;SDS011;17996;51.056;3.656;2024-03-23T01:28:44;35.97;;;13.57;;
27543;SDS011;17996;51.056;3.656;2024-03-23T01:31:10;33.78;;;12.40;;
27543;SDS011;17996;51.056;3.656;2024-03-23T01:33:38;38.83;;;13.50;;
27543;SDS011;17996;51.056;3.656;2024-03-23T01:36:04;45.95;;;14.00;;
27543;SDS011;17996;51.056;3.656;2024-03-23T01:38:31;42.03;;;13.05;;
27543;SDS011;17996;51.056;3.656;2024-03-23T01:40:57;35.88;;;12.70;;
27543;SDS011;17996;51.056;3.656;2024-03-23T01:43:24;36.40;;;12.88;;
27543;SDS011;17996;51.056;3.656;2024-03-23T01:45:52;38.28;;;12.65;;
27543;SDS011;17996;51.056;3.656;2024-03-23T01:48:21;37.72;;;12.55;;
27543;SDS011;17996;51.056;3.656;2024-03-23T01:50:47;34.72;;;13.00;;
27543;SDS011;17996;51.056;3.656;2024-03-23T01:53:14;38.42;;;12.98;;
27543;SDS011;17996;51.056;3.656;2024-03-23T01:55:42;40.70;;;13.00;;
27543;SDS011;17996;51.056;3.656;2024-03-23T01:58:10;54.05;;;13.45;;
27543;SDS011;17996;51.056;3.656;2024-03-23T02:00:36;41.33;;;12.02;;
27543;SDS011;17996;51.056;3.656;2024-03-23T02:03:02;36.17;;;12.43;;
27543;SDS011;17996;51.056;3.656;2024-03-23T02:05:52;32.97;;;11.20;;
27543;SDS011;17996;51.056;3.656;2024-03-23T02:08:22;30.05;;;11.05;;
27543;SDS011;17996;51.056;3.656;2024-03-23T02:10:50;34.78;;;11.25;;
27543;SDS011;17996;51.056;3.656;2024-03-23T02:13:20;33.95;;;10.45;;
27543;SDS011;17996;51.056;3.656;2024-03-23T02:15:46;28.25;;;10.15;;
27543;SDS011;17996;51.056;3.656;2024-03-23T02:18:12;36.70;;;10.05;;
27543;SDS011;17996;51.056;3.656;2024-03-23T02:20:39;21.52;;;9.50;;
27543;SDS011;17996;51.056;3.656;2024-03-23T02:23:05;37.92;;;9.07;;
27543;SDS011;17996;51.056;3.656;2024-03-23T02:25:38;29.98;;;8.98;;
27543;SDS011;17996;51.056;3.656;2024-03-23T02:28:05;38.08;;;8.73;;
27543;SDS011;17996;51.056;3.656;2024-03-23T02:30:33;23.60;;;8.32;;
27543;SDS011;17996;51.056;3.656;2024-03-23T02:33:00;25.05;;;7.82;;
27543;SDS011;17996;51.056;3.656;2024-03-23T02:35:26;24.23;;;7.95;;
27543;SDS011;17996;51.056;3.656;2024-03-23T02:37:52;40.53;;;7.55;;
27543;SDS011;17996;51.056;3.656;2024-03-23T02:40:20;33.83;;;8.40;;
27543;SDS011;17996;51.056;3.656;2024-03-23T02:42:46;25.15;;;7.35;;
27543;SDS011;17996;51.056;3.656;2024-03-23T02:45:11;30.77;;;7.00;;
27543;SDS011;17996;51.056;3.656;2024-03-23T02:47:37;27.55;;;8.13;;
27543;SDS011;17996;51.056;3.656;2024-03-23T02:50:05;24.88;;;7.32;;
27543;SDS011;17996;51.056;3.656;2024-03-23T02:52:32;20.95;;;7.57;;
27543;SDS011;17996;51.056;3.656;2024-03-23T02:54:57;21.42;;;6.38;;
27543;SDS011;17996;51.056;3.656;2024-03-23T02:57:26;21.55;;;7.80;;
27543;SDS011;17996;51.056;3.656;2024-03-23T03:02:20;27.40;;;8.38;;
27543;SDS011;17996;51.056;3.656;2024-03-23T03:04:46;27.17;;;8.30;;
27543;SDS011;17996;51.056;3.656;2024-03-23T03:07:14;15.10;;;6.32;;
27543;SDS011;17996;51.056;3.656;2024-03-23T03:09:42;21.13;;;8.20;;
27543;SDS011;17996;51.056;3.656;2024-03-23T03:12:08;18.52;;;5.80;;
27543;SDS011;17996;51.056;3.656;2024-03-23T03:14:35;19.42;;;7.68;;
27543;SDS011;17996;51.056;3.656;2024-03-23T03:17:01;27.83;;;6.85;;
27543;SDS011;17996;51.056;3.656;2024-03-23T03:19:27;23.10;;;6.70;;
27543;SDS011;17996;51.056;3.656;2024-03-23T03:21:56;27.45;;;7.30;;
27543;SDS011;17996;51.056;3.656;2024-03-23T03:24:23;23.55;;;8.27;;
27543;SDS011;17996;51.056;3.656;2024-03-23T03:26:51;34.85;;;8.55;;
27543;SDS011;17996;51.056;3.656;2024-03-23T03:31:46;23.73;;;7.70;;
27543;SDS011;17996;51.056;3.656;2024-03-23T03:34:14;21.95;;;6.97;;
27543;SDS011;17996;51.056;3.656;2024-03-23T03:36:41;29.08;;;7.30;;
27543;SDS011;17996;51.056;3.656;2024-03-23T03:39:09;19.95;;;7.15;;
27543;SDS011;17996;51.056;3.656;2024-03-23T03:41:36;23.30;;;7.38;;
27543;SDS011;17996;51.056;3.656;2024-03-23T03:44:04;22.45;;;8.73;;
27543;SDS011;17996;51.056;3.656;2024-03-23T03:46:30;21.98;;;8.00;;
27543;SDS011;17996;51.056;3.656;2024-03-23T03:48:57;25.40;;;6.88;;
27543;SDS011;17996;51.056;3.656;2024-03-23T03:51:24;28.13;;;7.80;;
27543;SDS011;17996;51.056;3.656;2024-03-23T03:53:51;24.33;;;6.15;;
27543;SDS011;17996;51.056;3.656;2024-03-23T03:56:16;24.23;;;5.97;;
27543;SDS011;17996;51.056;3.656;2024-03-23T03:58:43;25.80;;;5.82;;
27543;SDS011;17996;51.056;3.656;2024-03-23T04:01:09;27.45;;;5.57;;
27543;SDS011;17996;51.056;3.656;2024-03-23T04:03:35;24.35;;;5.68;;
27543;SDS011;17996;51.056;3.656;2024-03-23T04:06:03;24.45;;;5.47;;
27543;SDS011;17996;51.056;3.656;2024-03-23T04:08:28;19.63;;;6.20;;
27543;SDS011;17996;51.056;3.656;2024-03-23T04:10:55;28.48;;;6.18;;
27543;SDS011;17996;51.056;3.656;2024-03-23T04:13:22;26.45;;;5.43;;
27543;SDS011;17996;51.056;3.656;2024-03-23T04:15:48;19.13;;;6.47;;
27543;SDS011;17996;51.056;3.656;2024-03-23T04:20:45;14.82;;;5.03;;
27543;SDS011;17996;51.056;3.656;2024-03-23T04:25:39;17.55;;;5.13;;
27543;SDS011;17996;51.056;3.656;2024-03-23T04:28:05;20.17;;;6.45;;
27543;SDS011;17996;51.056;3.656;2024-03-23T04:33:03;22.63;;;5.88;;
27543;SDS011;17996;51.056;3.656;2024-03-23T04:37:59;26.00;;;5.57;;
27543;SDS011;17996;51.056;3.656;2024-03-23T04:40:25;24.00;;;5.50;;
27543;SDS011;17996;51.056;3.656;2024-03-23T04:42:51;24.75;;;5.38;;
27543;SDS011;17996;51.056;3.656;2024-03-23T04:45:18;21.20;;;4.78;;
27543;SDS011;17996;51.056;3.656;2024-03-23T04:47:44;19.50;;;5.05;;
27543;SDS011;17996;51.056;3.656;2024-03-23T04:50:13;17.60;;;4.53;;
27543;SDS011;17996;51.056;3.656;2024-03-23T04:52:39;21.05;;;4.85;;
27543;SDS011;17996;51.056;3.656;2024-03-23T04:55:05;27.20;;;5.68;;
27543;SDS011;17996;51.056;3.656;2024-03-23T04:57:32;24.50;;;4.65;;
27543;SDS011;17996;51.056;3.656;2024-03-23T04:59:57;28.00;;;4.63;;
27543;SDS011;17996;51.056;3.656;2024-03-23T05:02:24;24.55;;;4.13;;
27543;SDS011;17996;51.056;3.656;2024-03-23T05:04:51;19.02;;;4.20;;
27543;SDS011;17996;51.056;3.656;2024-03-23T05:07:18;23.58;;;4.60;;
27543;SDS011;17996;51.056;3.656;2024-03-23T05:09:45;29.15;;;4.93;;
27543;SDS011;17996;51.056;3.656;2024-03-23T05:12:11;24.00;;;4.47;;
27543;SDS011;17996;51.056;3.656;2024-03-23T05:14:40;16.63;;;4.45;;
27543;SDS011;17996;51.056;3.656;2024-03-23T05:17:07;26.85;;;5.43;;
27543;SDS011;17996;51.056;3.656;2024-03-23T05:19:34;28.08;;;4.13;;
27543;SDS011;17996;51.056;3.656;2024-03-23T05:22:01;21.45;;;3.70;;
27543;SDS011;17996;51.056;3.656;2024-03-23T05:24:29;20.38;;;3.70;;
27543;SDS011;17996;51.056;3.656;2024-03-23T05:26:55;23.00;;;3.67;;
27543;SDS011;17996;51.056;3.656;2024-03-23T05:31:55;17.85;;;5.13;;
27543;SDS011;17996;51.056;3.656;2024-03-23T05:34:25;22.65;;;3.80;;
27543;SDS011;17996;51.056;3.656;2024-03-23T05:36:53;24.50;;;3.83;;
27543;SDS011;17996;51.056;3.656;2024-03-23T05:39:21;25.15;;;3.67;;
27543;SDS011;17996;51.056;3.656;2024-03-23T05:41:48;24.58;;;4.03;;
27543;SDS011;17996;51.056;3.656;2024-03-23T05:46:43;24.50;;;3.95;;
27543;SDS011;17996;51.056;3.656;2024-03-23T05:49:13;22.40;;;3.65;;
27543;SDS011;17996;51.056;3.656;2024-03-23T05:51:42;16.67;;;3.58;;
27543;SDS011;17996;51.056;3.656;2024-03-23T05:54:08;22.83;;;4.38;;
27543;SDS011;17996;51.056;3.656;2024-03-23T05:56:37;22.17;;;4.82;;
27543;SDS011;17996;51.056;3.656;2024-03-23T06:04:00;19.65;;;3.00;;
27543;SDS011;17996;51.056;3.656;2024-03-23T06:06:28;14.95;;;3.33;;
27543;SDS011;17996;51.056;3.656;2024-03-23T06:08:55;18.38;;;4.00;;
27543;SDS011;17996;51.056;3.656;2024-03-23T06:11:24;23.67;;;4.68;;
27543;SDS011;17996;51.056;3.656;2024-03-23T06:13:51;22.05;;;3.40;;
27543;SDS011;17996;51.056;3.656;2024-03-23T06:16:18;24.80;;;4.22;;
27543;SDS011;17996;51.056;3.656;2024-03-23T06:18:50;29.92;;;4.78;;
27543;SDS011;17996;51.056;3.656;2024-03-23T06:21:16;21.35;;;3.65;;
27543;SDS011;17996;51.056;3.656;2024-03-23T06:23:42;21.85;;;5.18;;
27543;SDS011;17996;51.056;3.656;2024-03-23T06:26:10;22.60;;;4.65;;
27543;SDS011;17996;51.056;3.656;2024-03-23T06:31:08;18.63;;;3.47;;
27543;SDS011;17996;51.056;3.656;2024-03-23T06:33:37;19.77;;;4.55;;
27543;SDS011;17996;51.056;3.656;2024-03-23T06:36:07;25.55;;;5.47;;
27543;SDS011;17996;51.056;3.656;2024-03-23T06:38:35;16.85;;;4.10;;
27543;SDS011;17996;51.056;3.656;2024-03-23T06:41:04;27.38;;;4.05;;
27543;SDS011;17996;51.056;3.656;2024-03-23T06:43:30;16.40;;;4.03;;
27543;SDS011;17996;51.056;3.656;2024-03-23T06:45:57;24.38;;;4.28;;
27543;SDS011;17996;51.056;3.656;2024-03-23T06:48:24;25.52;;;4.70;;
27543;SDS011;17996;51.056;3.656;2024-03-23T06:50:55;24.63;;;4.13;;
27543;SDS011;17996;51.056;3.656;2024-03-23T06:53:22;25.10;;;4.80;;
27543;SDS011;17996;51.056;3.656;2024-03-23T06:55:56;23.25;;;4.82;;
27543;SDS011;17996;51.056;3.656;2024-03-23T06:58:23;25.60;;;4.50;;
27543;SDS011;17996;51.056;3.656;2024-03-23T07:00:50;22.90;;;4.73;;
27543;SDS011;17996;51.056;3.656;2024-03-23T07:03:20;20.73;;;4.72;;
27543;SDS011;17996;51.056;3.656;2024-03-23T07:05:47;28.80;;;4.70;;
27543;SDS011;17996;51.056;3.656;2024-03-23T07:08:15;31.40;;;6.45;;
27543;SDS011;17996;51.056;3.656;2024-03-23T07:10:48;26.38;;;5.00;;
27543;SDS011;17996;51.056;3.656;2024-03-23T07:13:14;20.65;;;4.28;;
27543;SDS011;17996;51.056;3.656;2024-03-23T07:15:39;24.02;;;5.05;;
27543;SDS011;17996;51.056;3.656;2024-03-23T07:20:36;29.20;;;4.38;;
27543;SDS011;17996;51.056;3.656;2024-03-23T07:23:02;20.35;;;3.55;;
27543;SDS011;17996;51.056;3.656;2024-03-23T07:25:28;17.98;;;4.53;;
27543;SDS011;17996;51.056;3.656;2024-03-23T07:27:56;22.20;;;4.25;;
27543;SDS011;17996;51.056;3.656;2024-03-23T07:30:23;22.35;;;4.95;;
27543;SDS011;17996;51.056;3.656;2024-03-23T07:32:50;23.88;;;4.75;;
27543;SDS011;17996;51.056;3.656;2024-03-23T07:35:16;20.90;;;3.88;;
27543;SDS011;17996;51.056;3.656;2024-03-23T07:37:43;19.83;;;4.43;;
27543;SDS011;17996;51.056;3.656;2024-03-23T07:40:10;28.50;;;4.60;;
27543;SDS011;17996;51.056;3.656;2024-03-23T07:42:37;34.17;;;5.25;;
27543;SDS011;17996;51.056;3.656;2024-03-23T07:45:03;23.75;;;4.45;;
27543;SDS011;17996;51.056;3.656;2024-03-23T07:47:30;34.20;;;4.78;;
27543;SDS011;17996;51.056;3.656;2024-03-23T07:49:57;18.40;;;5.60;;
27543;SDS011;17996;51.056;3.656;2024-03-23T07:52:24;20.92;;;4.65;;
27543;SDS011;17996;51.056;3.656;2024-03-23T07:54:54;31.08;;;5.25;;
27543;SDS011;17996;51.056;3.656;2024-03-23T07:57:21;23.63;;;4.53;;
27543;SDS011;17996;51.056;3.656;2024-03-23T07:59:47;18.83;;;4.60;;
27543;SDS011;17996;51.056;3.656;2024-03-23T08:02:13;27.63;;;5.00;;
27543;SDS011;17996;51.056;3.656;2024-03-23T08:04:38;25.00;;;4.88;;
27543;SDS011;17996;51.056;3.656;2024-03-23T08:07:05;20.25;;;4.07;;
27543;SDS011;17996;51.056;3.656;2024-03-23T08:09:31;22.15;;;5.70;;
27543;SDS011;17996;51.056;3.656;2024-03-23T08:12:00;29.08;;;5.00;;
27543;SDS011;17996;51.056;3.656;2024-03-23T08:14:26;26.35;;;4.28;;
27543;SDS011;17996;51.056;3.656;2024-03-23T08:16:54;15.85;;;3.60;;
27543;SDS011;17996;51.056;3.656;2024-03-23T08:19:20;26.38;;;4.75;;
27543;SDS011;17996;51.056;3.656;2024-03-23T08:21:46;24.80;;;5.10;;
27543;SDS011;17996;51.056;3.656;2024-03-23T08:26:41;27.13;;;4.45;;
27543;SDS011;17996;51.056;3.656;2024-03-23T08:29:07;24.85;;;4.18;;
27543;SDS011;17996;51.056;3.656;2024-03-23T08:31:33;20.40;;;3.58;;
27543;SDS011;17996;51.056;3.656;2024-03-23T08:33:58;25.65;;;3.22;;
27543;SDS011;17996;51.056;3.656;2024-03-23T08:36:25;27.10;;;4.25;;
27543;SDS011;17996;51.056;3.656;2024-03-23T08:38:51;18.48;;;3.53;;
27543;SDS011;17996;51.056;3.656;2024-03-23T08:41:18;20.48;;;3.70;;
27543;SDS011;17996;51.056;3.656;2024-03-23T08:43:44;17.65;;;3.55;;
27543;SDS011;17996;51.056;3.656;2024-03-23T08:46:13;30.23;;;3.97;;
27543;SDS011;17996;51.056;3.656;2024-03-23T08:48:41;21.60;;;3.45;;
27543;SDS011;17996;51.056;3.656;2024-03-23T08:51:12;12.90;;;3.45;;
27543;SDS011;17996;51.056;3.656;2024-03-23T08:53:39;19.17;;;4.07;;
27543;SDS011;17996;51.056;3.656;2024-03-23T08:56:07;16.35;;;3.17;;
27543;SDS011;17996;51.056;3.656;2024-03-23T08:58:35;21.88;;;4.25;;
27543;SDS011;17996;51.056;3.656;2024-03-23T09:01:03;13.95;;;2.53;;
27543;SDS011;17996;51.056;3.656;2024-03-23T09:03:30;17.00;;;3.50;;
27543;SDS011;17996;51.056;3.656;2024-03-23T09:05:56;20.25;;;3.67;;
27543;SDS011;17996;51.056;3.656;2024-03-23T09:08:23;14.45;;;2.60;;
27543;SDS011;17996;51.056;3.656;2024-03-23T09:10:51;21.85;;;3.58;;
27543;SDS011;17996;51.056;3.656;2024-03-23T09:13:17;13.83;;;3.10;;
27543;SDS011;17996;51.056;3.656;2024-03-23T09:15:47;13.35;;;3.58;;
27543;SDS011;17996;51.056;3.656;2024-03-23T09:18:14;16.85;;;3.17;;
27543;SDS011;17996;51.056;3.656;2024-03-23T09:20:41;16.13;;;3.53;;
27543;SDS011;17996;51.056;3.656;2024-03-23T09:23:09;16.58;;;3.10;;
27543;SDS011;17996;51.056;3.656;2024-03-23T09:25:38;19.23;;;3.17;;
27543;SDS011;17996;51.056;3.656;2024-03-23T09:28:07;18.70;;;3.50;;
27543;SDS011;17996;51.056;3.656;2024-03-23T09:30:34;17.45;;;4.63;;
27543;SDS011;17996;51.056;3.656;2024-03-23T09:33:02;20.83;;;4.15;;
27543;SDS011;17996;51.056;3.656;2024-03-23T09:35:29;21.23;;;5.03;;
27543;SDS011;17996;51.056;3.656;2024-03-23T09:37:54;19.90;;;5.05;;
27543;SDS011;17996;51.056;3.656;2024-03-23T09:40:20;14.30;;;4.60;;
27543;SDS011;17996;51.056;3.656;2024-03-23T09:42:50;23.70;;;4.60;;
27543;SDS011;17996;51.056;3.656;2024-03-23T09:45:17;19.48;;;4.28;;
27543;SDS011;17996;51.056;3.656;2024-03-23T09:47:47;26.52;;;4.25;;
27543;SDS011;17996;51.056;3.656;2024-03-23T09:50:14;19.27;;;3.88;;
27543;SDS011;17996;51.056;3.656;2024-03-23T09:52:40;14.75;;;3.17;;
27543;SDS011;17996;51.056;3.656;2024-03-23T09:55:09;14.55;;;3.03;;
27543;SDS011;17996;51.056;3.656;2024-03-23T09:57:35;10.95;;;3.22;;
27543;SDS011;17996;51.056;3.656;2024-03-23T10:00:01;15.43;;;3.88;;
27543;SDS011;17996;51.056;3.656;2024-03-23T10:02:27;22.58;;;3.22;;
27543;SDS011;17996;51.056;3.656;2024-03-23T10:04:55;14.30;;;3.85;;
27543;SDS011;17996;51.056;3.656;2024-03-23T10:07:22;15.23;;;3.70;;
27543;SDS011;17996;51.056;3.656;2024-03-23T10:09:48;18.58;;;4.43;;
27543;SDS011;17996;51.056;3.656;2024-03-23T10:12:17;17.65;;;5.22;;
27543;SDS011;17996;51.056;3.656;2024-03-23T10:14:44;16.63;;;5.78;;
27543;SDS011;17996;51.056;3.656;2024-03-23T10:17:20;22.65;;;6.35;;
27543;SDS011;17996;51.056;3.656;2024-03-23T10:19:50;23.83;;;5.50;;
27543;SDS011;17996;51.056;3.656;2024-03-23T10:22:18;18.55;;;4.55;;
27543;SDS011;17996;51.056;3.656;2024-03-23T10:24:45;13.63;;;4.97;;
27543;SDS011;17996;51.056;3.656;2024-03-23T10:27:15;23.13;;;5.20;;
27543;SDS011;17996;51.056;3.656;2024-03-23T10:29:44;21.88;;;5.45;;
27543;SDS011;17996;51.056;3.656;2024-03-23T10:32:11;15.80;;;4.60;;
27543;SDS011;17996;51.056;3.656;2024-03-23T10:34:38;16.80;;;4.63;;
27543;SDS011;17996;51.056;3.656;2024-03-23T10:37:05;9.50;;;3.22;;
27543;SDS011;17996;51.056;3.656;2024-03-23T10:39:33;14.52;;;3.20;;
27543;SDS011;17996;51.056;3.656;2024-03-23T10:42:07;15.50;;;4.07;;
27543;SDS011;17996;51.056;3.656;2024-03-23T10:44:36;13.88;;;4.38;;
27543;SDS011;17996;51.056;3.656;2024-03-23T10:47:04;16.48;;;4.32;;
27543;SDS011;17996;51.056;3.656;2024-03-23T10:49:35;17.00;;;4.32;;
27543;SDS011;17996;51.056;3.656;2024-03-23T10:52:04;13.32;;;3.78;;
27543;SDS011;17996;51.056;3.656;2024-03-23T10:54:32;17.83;;;4.15;;
27543;SDS011;17996;51.056;3.656;2024-03-23T10:57:09;18.05;;;3.35;;
27543;SDS011;17996;51.056;3.656;2024-03-23T11:02:09;18.55;;;4.25;;
27543;SDS011;17996;51.056;3.656;2024-03-23T11:04:44;12.82;;;4.47;;
27543;SDS011;17996;51.056;3.656;2024-03-23T11:07:32;16.30;;;4.45;;
27543;SDS011;17996;51.056;3.656;2024-03-23T11:10:01;13.52;;;4.28;;
27543;SDS011;17996;51.056;3.656;2024-03-23T11:12:28;18.40;;;4.70;;
27543;SDS011;17996;51.056;3.656;2024-03-23T11:14:58;17.85;;;6.18;;
27543;SDS011;17996;51.056;3.656;2024-03-23T11:17:29;21.88;;;5.05;;
27543;SDS011;17996;51.056;3.656;2024-03-23T11:20:00;16.17;;;5.18;;
27543;SDS011;17996;51.056;3.656;2024-03-23T11:25:15;21.83;;;5.70;;
27543;SDS011;17996;51.056;3.656;2024-03-23T11:27:43;12.38;;;3.97;;
27543;SDS011;17996;51.056;3.656;2024-03-23T11:30:14;18.20;;;4.60;;
27543;SDS011;17996;51.056;3.656;2024-03-23T11:32:41;11.70;;;4.60;;
27543;SDS011;17996;51.056;3.656;2024-03-23T11:35:07;16.58;;;5.38;;
27543;SDS011;17996;51.056;3.656;2024-03-23T11:37:35;22.88;;;5.28;;
27543;SDS011;17996;51.056;3.656;2024-03-23T11:40:24;17.63;;;5.53;;
27543;SDS011;17996;51.056;3.656;2024-03-23T11:42:55;12.27;;;3.75;;
27543;SDS011;17996;51.056;3.656;2024-03-23T11:45:25;18.15;;;4.63;;
27543;SDS011;17996;51.056;3.656;2024-03-23T11:50:43;28.20;;;4.30;;
27543;SDS011;17996;51.056;3.656;2024-03-23T11:53:13;19.90;;;4.10;;
27543;SDS011;17996;51.056;3.656;2024-03-23T11:55:52;15.93;;;3.45;;
27543;SDS011;17996;51.056;3.656;2024-03-23T11:58:25;20.48;;;4.57;;
27543;SDS011;17996;51.056;3.656;2024-03-23T12:01:02;15.23;;;4.00;;
27543;SDS011;17996;51.056;3.656;2024-03-23T12:03:30;11.40;;;3.65;;
27543;SDS011;17996;51.056;3.656;2024-03-23T12:06:02;9.20;;;3.22;;
27543;SDS011;17996;51.056;3.656;2024-03-23T12:08:33;13.02;;;4.47;;
27543;SDS011;17996;51.056;3.656;2024-03-23T12:11:14;13.05;;;3.67;;
27543;SDS011;17996;51.056;3.656;2024-03-23T12:13:45;8.88;;;2.90;;
27543;SDS011;17996;51.056;3.656;2024-03-23T12:16:13;23.23;;;4.75;;
27543;SDS011;17996;51.056;3.656;2024-03-23T12:18:41;17.60;;;3.93;;
27543;SDS011;17996;51.056;3.656;2024-03-23T12:21:08;5.88;;;2.38;;
27543;SDS011;17996;51.056;3.656;2024-03-23T12:23:35;17.95;;;4.03;;
27543;SDS011;17996;51.056;3.656;2024-03-23T12:26:07;14.93;;;3.97;;
27543;SDS011;17996;51.056;3.656;2024-03-23T12:31:02;20.02;;;3.35;;
27543;SDS011;17996;51.056;3.656;2024-03-23T12:33:28;8.88;;;3.00;;
27543;SDS011;17996;51.056;3.656;2024-03-23T12:35:54;9.88;;;2.55;;
27543;SDS011;17996;51.056;3.656;2024-03-23T12:38:23;14.63;;;3.72;;
27543;SDS011;17996;51.056;3.656;2024-03-23T12:40:49;13.38;;;3.30;;
27543;SDS011;17996;51.056;3.656;2024-03-23T12:43:16;12.25;;;4.45;;
27543;SDS011;17996;51.056;3.656;2024-03-23T12:45:48;12.20;;;3.58;;
27543;SDS011;17996;51.056;3.656;2024-03-23T12:48:15;17.70;;;4.00;;
27543;SDS011;17996;51.056;3.656;2024-03-23T12:50:41;12.98;;;3.97;;
27543;SDS011;17996;51.056;3.656;2024-03-23T12:53:06;15.27;;;4.18;;
27543;SDS011;17996;51.056;3.656;2024-03-23T12:55:34;11.40;;;3.58;;
27543;SDS011;17996;51.056;3.656;2024-03-23T12:58:01;13.43;;;4.10;;
27543;SDS011;17996;51.056;3.656;2024-03-23T13:00:29;12.10;;;3.55;;
27543;SDS011;17996;51.056;3.656;2024-03-23T13:02:54;12.10;;;3.00;;
27543;SDS011;17996;51.056;3.656;2024-03-23T13:05:21;11.90;;;3.35;;
27543;SDS011;17996;51.056;3.656;2024-03-23T13:07:48;10.73;;;2.47;;
27543;SDS011;17996;51.056;3.656;2024-03-23T13:10:14;11.93;;;2.50;;
27543;SDS011;17996;51.056;3.656;2024-03-23T13:12:41;13.25;;;2.78;;
27543;SDS011;17996;51.056;3.656;2024-03-23T13:15:07;14.30;;;2.88;;
27543;SDS011;17996;51.056;3.656;2024-03-23T13:17:34;12.43;;;2.63;;
27543;SDS011;17996;51.056;3.656;2024-03-23T13:19:59;19.25;;;2.90;;
27543;SDS011;17996;51.056;3.656;2024-03-23T13:22:28;13.70;;;2.50;;
27543;SDS011;17996;51.056;3.656;2024-03-23T13:24:58;7.28;;;2.10;;
27543;SDS011;17996;51.056;3.656;2024-03-23T13:29:57;9.85;;;2.17;;
27543;SDS011;17996;51.056;3.656;2024-03-23T13:34:48;6.15;;;1.77;;
27543;SDS011;17996;51.056;3.656;2024-03-23T13:37:15;6.32;;;2.38;;
27543;SDS011;17996;51.056;3.656;2024-03-23T13:42:10;11.95;;;2.88;;
27543;SDS011;17996;51.056;3.656;2024-03-23T13:44:37;16.20;;;2.80;;
27543;SDS011;17996;51.056;3.656;2024-03-23T13:47:03;9.65;;;2.95;;
27543;SDS011;17996;51.056;3.656;2024-03-23T13:49:32;9.50;;;2.67;;
27543;SDS011;17996;51.056;3.656;2024-03-23T13:52:03;14.10;;;4.28;;
27543;SDS011;17996;51.056;3.656;2024-03-23T13:54:30;10.07;;;2.47;;
27543;SDS011;17996;51.056;3.656;2024-03-23T13:56:56;6.20;;;2.10;;
27543;SDS011;17996;51.056;3.656;2024-03-23T13:59:23;10.05;;;2.10;;
27543;SDS011;17996;51.056;3.656;2024-03-23T14:01:50;19.83;;;3.47;;
27543;SDS011;17996;51.056;3.656;2024-03-23T14:04:16;13.15;;;2.97;;
27543;SDS011;17996;51.056;3.656;2024-03-23T14:06:44;8.38;;;2.38;;
27543;SDS011;17996;51.056;3.656;2024-03-23T14:09:13;15.20;;;2.75;;
27543;SDS011;17996;51.056;3.656;2024-03-23T14:11:40;11.38;;;2.53;;
27543;SDS011;17996;51.056;3.656;2024-03-23T14:14:08;7.53;;;2.00;;
27543;SDS011;17996;51.056;3.656;2024-03-23T14:16:34;12.32;;;2.67;;
27543;SDS011;17996;51.056;3.656;2024-03-23T14:19:00;15.13;;;2.72;;
27543;SDS011;17996;51.056;3.656;2024-03-23T14:21:26;10.48;;;2.42;;
27543;SDS011;17996;51.056;3.656;2024-03-23T14:23:52;11.55;;;2.90;;
27543;SDS011;17996;51.056;3.656;2024-03-23T14:26:20;12.10;;;2.20;;
27543;SDS011;17996;51.056;3.656;2024-03-23T14:28:46;14.07;;;2.53;;
27543;SDS011;17996;51.056;3.656;2024-03-23T14:31:11;10.50;;;2.42;;
27543;SDS011;17996;51.056;3.656;2024-03-23T14:33:37;13.88;;;2.55;;
27543;SDS011;17996;51.056;3.656;2024-03-23T14:36:07;12.80;;;2.65;;
27543;SDS011;17996;51.056;3.656;2024-03-23T14:38:33;11.73;;;2.80;;
27543;SDS011;17996;51.056;3.656;2024-03-23T14:40:59;12.23;;;2.92;;
27543;SDS011;17996;51.056;3.656;2024-03-23T14:43:27;10.18;;;2.30;;
27543;SDS011;17996;51.056;3.656;2024-03-23T14:46:06;13.65;;;3.20;;
27543;SDS011;17996;51.056;3.656;2024-03-23T14:48:35;7.00;;;1.52;;
27543;SDS011;17996;51.056;3.656;2024-03-23T14:51:01;7.97;;;1.92;;
27543;SDS011;17996;51.056;3.656;2024-03-23T14:56:01;12.15;;;2.38;;
27543;SDS011;17996;51.056;3.656;2024-03-23T14:58:28;8.35;;;2.20;;
27543;SDS011;17996;51.056;3.656;2024-03-23T15:01:04;13.25;;;2.25;;
27543;SDS011;17996;51.056;3.656;2024-03-23T15:03:37;7.18;;;1.77;;
27543;SDS011;17996;51.056;3.656;2024-03-23T15:06:04;11.95;;;2.20;;
27543;SDS011;17996;51.056;3.656;2024-03-23T15:08:31;15.30;;;3.10;;
27543;SDS011;17996;51.056;3.656;2024-03-23T15:11:00;12.07;;;2.72;;
27543;SDS011;17996;51.056;3.656;2024-03-23T15:13:30;14.07;;;2.22;;
27543;SDS011;17996;51.056;3.656;2024-03-23T15:15:58;14.18;;;2.53;;
27543;SDS011;17996;51.056;3.656;2024-03-23T15:18:24;12.90;;;2.60;;
27543;SDS011;17996;51.056;3.656;2024-03-23T15:20:54;10.60;;;2.17;;
27543;SDS011;17996;51.056;3.656;2024-03-23T15:23:34;5.93;;;1.88;;
27543;SDS011;17996;51.056;3.656;2024-03-23T15:26:01;17.73;;;2.50;;
27543;SDS011;17996;51.056;3.656;2024-03-23T15:28:28;7.13;;;2.17;;
27543;SDS011;17996;51.056;3.656;2024-03-23T15:31:27;17.73;;;2.95;;
27543;SDS011;17996;51.056;3.656;2024-03-23T15:33:54;11.00;;;2.40;;
27543;SDS011;17996;51.056;3.656;2024-03-23T15:36:22;10.38;;;1.80;;
27543;SDS011;17996;51.056;3.656;2024-03-23T15:38:50;9.40;;;1.85;;
27543;SDS011;17996;51.056;3.656;2024-03-23T15:41:16;12.48;;;2.75;;
27543;SDS011;17996;51.056;3.656;2024-03-23T15:43:42;7.30;;;2.63;;
27543;SDS011;17996;51.056;3.656;2024-03-23T15:46:07;12.35;;;2.70;;
27543;SDS011;17996;51.056;3.656;2024-03-23T15:48:36;12.35;;;2.90;;
27543;SDS011;17996;51.056;3.656;2024-03-23T15:51:02;7.28;;;2.33;;
27543;SDS011;17996;51.056;3.656;2024-03-23T15:53:31;16.55;;;3.33;;
27543;SDS011;17996;51.056;3.656;2024-03-23T15:55:58;15.52;;;3.15;;
27543;SDS011;17996;51.056;3.656;2024-03-23T15:58:25;10.93;;;3.00;;
27543;SDS011;17996;51.056;3.656;2024-03-23T16:01:00;22.42;;;3.83;;
27543;SDS011;17996;51.056;3.656;2024-03-23T16:03:31;9.85;;;2.45;;
27543;SDS011;17996;51.056;3.656;2024-03-23T16:05:59;8.88;;;2.58;;
27543;SDS011;17996;51.056;3.656;2024-03-23T16:08:26;15.67;;;3.70;;
27543;SDS011;17996;51.056;3.656;2024-03-23T16:10:52;9.93;;;2.67;;
27543;SDS011;17996;51.056;3.656;2024-03-23T16:13:19;10.30;;;2.47;;
27543;SDS011;17996;51.056;3.656;2024-03-23T16:15:56;15.20;;;3.28;;
27543;SDS011;17996;51.056;3.656;2024-03-23T16:18:22;13.35;;;3.47;;
27543;SDS011;17996;51.056;3.656;2024-03-23T16:20:59;14.95;;;3.33;;
27543;SDS011;17996;51.056;3.656;2024-03-23T16:23:27;9.52;;;2.13;;